Time;durP1;ratioP1;P1;durP2;ratioP2;P2;SDS_P1;SDS_P2;PMS_P1;PMS_P2;Temp;Humidity;BMP_temperature;BMP_pressure;BME280_temperature;BME280_humidity;BME280_pressure;Samples;Min_cycle;Max_cycle;Signal;HPM_P1;HPM_P2
2022/01/30 00:02:08;;;;;;;0.40;0.40;;;5.10;99.90;;;;;;5085081;27;21072;-59
2022/01/30 00:04:48;;;;;;;0.30;0.30;;;5.10;99.90;;;;;;5125185;27;20544;-58
2022/01/30 00:07:28;;;;;;;0.30;0.30;;;5.10;99.90;;;;;;5104275;27;20911;-58
2022/01/30 00:10:11;;;;;;;0.30;0.30;;;5.00;99.90;;;;;;5084230;28;20918;-58
2022/01/30 00:12:54;;;;;;;0.10;0.10;;;5.00;99.90;;;;;;5084614;28;20960;-59
2022/01/30 00:15:41;;;;;;;0.20;0.20;;;5.00;99.90;;;;;;5082971;28;20684;-59
2022/01/30 00:18:40;;;;;;;0.70;0.60;;;5.10;99.90;;;;;;5131079;27;20553;-60
2022/01/30 00:21:31;;;;;;;0.30;0.30;;;5.00;99.90;;;;;;5082941;28;20535;-59
2022/01/30 00:24:14;;;;;;;0.20;0.20;;;5.00;99.90;;;;;;5084441;27;20561;-57
2022/01/30 00:26:53;;;;;;;0.50;0.50;;;5.10;99.90;;;;;;5104801;27;20673;-61
2022/01/30 00:29:33;;;;;;;0.77;0.55;;;5.10;99.90;;;;;;5125626;27;20696;-59
2022/01/30 00:32:12;;;;;;;0.57;0.30;;;5.10;99.90;;;;;;5105343;27;20674;-58
2022/01/30 00:34:52;;;;;;;0.35;0.35;;;5.10;99.90;;;;;;5084513;27;20547;-60
2022/01/30 00:37:32;;;;;;;0.50;0.50;;;5.00;99.90;;;;;;5084310;27;20544;-60
2022/01/30 00:40:12;;;;;;;0.17;0.17;;;4.90;99.90;;;;;;5084113;27;20567;-58
2022/01/30 00:42:52;;;;;;;0.20;0.20;;;4.90;99.90;;;;;;5147072;27;20643;-59
2022/01/30 00:45:32;;;;;;;0.35;0.35;;;4.80;99.90;;;;;;5085012;27;21060;-59
2022/01/30 00:48:11;;;;;;;0.40;0.40;;;4.90;99.90;;;;;;5125119;27;20547;-58
2022/01/30 00:50:53;;;;;;;1.10;0.70;;;4.90;99.90;;;;;;5104766;27;21070;-58
2022/01/30 00:53:33;;;;;;;1.98;0.60;;;5.00;99.90;;;;;;5084060;27;20547;-58
2022/01/30 00:56:13;;;;;;;1.20;0.70;;;5.10;99.90;;;;;;5146385;27;20535;-59
2022/01/30 00:58:52;;;;;;;1.73;1.00;;;5.20;99.90;;;;;;5124524;27;20556;-60
2022/01/30 01:01:32;;;;;;;0.95;0.80;;;5.20;99.90;;;;;;5084926;28;20688;-59
2022/01/30 01:04:12;;;;;;;1.77;1.30;;;5.10;99.90;;;;;;5125176;27;20822;-59
2022/01/30 01:06:52;;;;;;;1.85;1.23;;;4.90;99.90;;;;;;5084980;28;20702;-58
2022/01/30 01:09:37;;;;;;;1.63;1.05;;;4.80;99.90;;;;;;5083862;27;20555;-58
2022/01/30 01:24:07;;;;;;;3.88;1.20;;;4.10;99.90;;;;;;5084019;27;20539;-59
2022/01/30 01:26:47;;;;;;;2.97;1.33;;;4.10;99.90;;;;;;5084553;28;20609;-59
2022/01/30 01:29:27;;;;;;;3.67;1.60;;;4.30;99.90;;;;;;5104421;27;20686;-60
2022/01/30 01:32:08;;;;;;;2.50;1.40;;;4.40;99.90;;;;;;5125729;27;21154;-58
2022/01/30 01:34:47;;;;;;;2.13;1.10;;;4.40;99.90;;;;;;5145841;27;20653;-60
2022/01/30 01:37:27;;;;;;;2.97;1.50;;;4.50;99.90;;;;;;5145360;27;20534;-59
2022/01/30 01:40:08;;;;;;;2.08;1.33;;;4.60;99.90;;;;;;5125568;27;20673;-59
2022/01/30 01:42:48;;;;;;;2.88;1.30;;;4.70;99.90;;;;;;5146609;27;20657;-59
2022/01/30 01:45:33;;;;;;;4.07;1.45;;;4.60;99.90;;;;;;5155617;27;20537;-60
2022/01/30 01:48:14;;;;;;;5.90;1.27;;;4.70;99.90;;;;;;5152399;27;20541;-59
2022/01/30 01:51:04;;;;;;;1.33;1.00;;;4.70;99.90;;;;;;5145557;27;20669;-59
2022/01/30 01:53:43;;;;;;;3.70;1.40;;;4.60;99.90;;;;;;5084368;27;20883;-58
2022/01/30 01:56:24;;;;;;;4.10;1.40;;;4.40;99.90;;;;;;5084909;28;20679;-58
2022/01/30 01:59:03;;;;;;;3.58;1.45;;;4.30;99.90;;;;;;5166513;27;20674;-59
2022/01/30 02:01:44;;;;;;;5.07;1.38;;;4.30;99.90;;;;;;5105311;27;21050;-59
2022/01/30 02:04:24;;;;;;;3.08;2.28;;;4.20;99.90;;;;;;5146622;27;20531;-59
2022/01/30 02:07:45;;;;;;;2.60;1.63;;;4.10;99.90;;;;;;5100793;27;21603;-60
2022/01/30 02:10:19;;;;;;;2.22;1.10;;;4.10;99.90;;;;;;5153066;27;20534;-60
2022/01/30 02:13:13;;;;;;;4.57;1.40;;;4.00;99.90;;;;;;5125483;27;20772;-60
2022/01/30 02:24:56;;;;;;;4.45;1.90;;;4.00;99.90;;;;;;5116513;27;20544;-60
2022/01/30 02:27:37;;;;;;;4.10;1.30;;;4.10;99.90;;;;;;5104062;27;20847;-60
2022/01/30 02:30:20;;;;;;;4.38;1.63;;;4.30;99.90;;;;;;5084168;27;21080;-59
2022/01/30 02:32:59;;;;;;;2.22;1.50;;;4.40;99.90;;;;;;5084290;27;20672;-59
2022/01/30 02:35:39;;;;;;;5.63;1.83;;;4.40;99.90;;;;;;5084598;27;20605;-58
2022/01/30 02:38:19;;;;;;;3.72;1.58;;;4.50;99.90;;;;;;5124497;27;21119;-59
2022/01/30 02:40:59;;;;;;;4.05;1.75;;;4.50;99.90;;;;;;5060977;28;20697;-58
2022/01/30 02:43:48;;;;;;;11.10;2.45;;;4.50;99.90;;;;;;5103742;27;21021;-58
2022/01/30 02:46:33;;;;;;;2.47;1.27;;;4.50;99.90;;;;;;5084389;27;20580;-59
2022/01/30 02:49:26;;;;;;;4.82;1.77;;;4.50;99.90;;;;;;5083658;28;20671;-59
2022/01/30 02:52:07;;;;;;;3.25;1.65;;;4.50;99.90;;;;;;5146317;27;20592;-58
2022/01/30 02:54:47;;;;;;;4.65;1.60;;;4.30;99.90;;;;;;5084676;27;20549;-59
2022/01/30 02:57:26;;;;;;;6.47;1.60;;;4.30;99.90;;;;;;5084298;28;20556;-58
2022/01/30 03:00:10;;;;;;;3.72;1.35;;;4.50;99.90;;;;;;5084545;27;20536;-60
2022/01/30 03:02:50;;;;;;;3.42;1.40;;;4.60;99.90;;;;;;5105111;27;20542;-58
2022/01/30 03:05:29;;;;;;;3.90;2.00;;;4.60;99.90;;;;;;5084597;27;20584;-58
2022/01/30 03:08:09;;;;;;;4.55;1.95;;;4.60;99.90;;;;;;5104188;27;20670;-60
2022/01/30 03:10:49;;;;;;;5.90;1.80;;;4.60;99.90;;;;;;5145587;27;20661;-60
2022/01/30 03:13:29;;;;;;;5.57;1.50;;;4.60;99.90;;;;;;5084221;28;20605;-59
2022/01/30 03:16:08;;;;;;;4.22;1.35;;;4.60;99.90;;;;;;5078909;27;20572;-59
2022/01/30 03:18:48;;;;;;;6.47;2.10;;;4.50;99.90;;;;;;5123958;27;21076;-59
2022/01/30 03:21:28;;;;;;;5.25;1.50;;;4.50;99.90;;;;;;5124262;27;20605;-60
2022/01/30 03:24:08;;;;;;;2.20;1.40;;;4.50;99.90;;;;;;5166803;27;20665;-59
2022/01/30 03:26:48;;;;;;;3.22;1.92;;;4.50;99.90;;;;;;5146488;27;20665;-60
2022/01/30 03:29:27;;;;;;;5.28;1.60;;;4.50;99.90;;;;;;5104454;27;20682;-58
2022/01/30 03:32:08;;;;;;;2.53;1.40;;;4.50;99.90;;;;;;5126161;27;21169;-58
2022/01/30 03:34:49;;;;;;;3.65;1.58;;;4.50;99.90;;;;;;5125670;27;20679;-59
2022/01/30 03:37:29;;;;;;;7.30;1.90;;;4.30;99.90;;;;;;5145230;27;20560;-61
2022/01/30 03:40:10;;;;;;;3.60;1.75;;;4.30;99.90;;;;;;5145634;27;20596;-58
2022/01/30 03:42:50;;;;;;;5.25;1.70;;;4.20;99.90;;;;;;5105468;27;20599;-58
2022/01/30 03:45:30;;;;;;;3.78;1.73;;;4.20;99.90;;;;;;5084489;27;20661;-58
2022/01/30 03:48:10;;;;;;;4.50;1.75;;;4.30;99.90;;;;;;5104371;27;21045;-59
2022/01/30 03:50:49;;;;;;;2.58;1.50;;;4.40;99.90;;;;;;5104691;27;21006;-60
2022/01/30 03:53:31;;;;;;;3.58;1.33;;;4.40;99.90;;;;;;5145867;27;20654;-59
2022/01/30 03:56:11;;;;;;;2.83;1.33;;;4.30;99.90;;;;;;5085195;27;20592;-59
2022/01/30 03:58:50;;;;;;;8.02;1.77;;;4.20;99.90;;;;;;5104551;27;21019;-58
2022/01/30 04:01:30;;;;;;;4.55;1.45;;;4.00;99.90;;;;;;5104673;27;20549;-59
2022/01/30 04:04:10;;;;;;;3.72;1.60;;;3.90;99.90;;;;;;5125040;27;20532;-59
2022/01/30 04:06:51;;;;;;;2.85;1.60;;;4.00;99.90;;;;;;5085029;27;20598;-60
2022/01/30 04:09:30;;;;;;;2.42;1.15;;;4.00;99.90;;;;;;5104219;27;20892;-60
2022/01/30 04:12:11;;;;;;;2.67;1.00;;;4.00;99.90;;;;;;5146285;27;21206;-57
2022/01/30 04:14:52;;;;;;;4.78;1.63;;;4.00;99.90;;;;;;5144845;27;20849;-59
2022/01/30 04:17:31;;;;;;;3.55;1.30;;;3.80;99.90;;;;;;5083677;27;20559;-60
2022/01/30 04:20:12;;;;;;;4.20;1.48;;;3.60;99.90;;;;;;5153984;27;21043;-59
2022/01/30 04:22:52;;;;;;;4.82;1.50;;;3.40;99.90;;;;;;5145099;27;20615;-60
2022/01/30 04:25:32;;;;;;;2.78;1.67;;;3.20;99.90;;;;;;5084510;27;20536;-59
2022/01/30 04:28:12;;;;;;;2.92;1.50;;;3.20;99.90;;;;;;5104353;27;21086;-59
2022/01/30 04:30:52;;;;;;;2.05;1.20;;;3.10;99.90;;;;;;5124998;27;20536;-58
2022/01/30 04:33:32;;;;;;;6.15;1.70;;;3.00;99.90;;;;;;5145975;27;20530;-60
2022/01/30 04:36:16;;;;;;;3.78;1.48;;;3.00;99.90;;;;;;5084700;27;20561;-59
2022/01/30 04:39:03;;;;;;;3.78;1.20;;;3.00;99.90;;;;;;5083639;27;20564;-59
2022/01/30 04:42:07;;;;;;;9.10;1.65;;;3.20;99.90;;;;;;5084592;28;20539;-59
2022/01/30 04:54:05;;;;;;;6.53;2.63;;;3.10;99.90;;;;;;5105121;27;20658;-60
2022/01/30 04:56:56;;;;;;;4.55;1.30;;;3.10;99.90;;;;;;5085031;28;20662;-59
2022/01/30 04:59:52;;;;;;;3.63;1.25;;;3.10;99.90;;;;;;5084927;28;20617;-59
2022/01/30 05:02:50;;;;;;;4.15;1.48;;;3.20;99.90;;;;;;5085009;27;20569;-60
2022/01/30 05:05:47;;;;;;;5.80;1.35;;;3.30;99.90;;;;;;5146165;27;21017;-60
2022/01/30 05:08:28;;;;;;;5.70;1.48;;;3.40;99.90;;;;;;5084372;28;20664;-59
2022/01/30 05:11:08;;;;;;;4.82;1.70;;;3.40;99.90;;;;;;5145764;27;20534;-58
2022/01/30 05:13:50;;;;;;;6.90;1.98;;;3.40;99.90;;;;;;5146498;27;20658;-61
2022/01/30 05:16:33;;;;;;;5.22;1.77;;;3.40;99.90;;;;;;5100876;27;20674;-59
2022/01/30 05:19:14;;;;;;;3.83;1.50;;;3.30;99.90;;;;;;5145315;27;20623;-59
2022/01/30 05:21:55;;;;;;;5.22;1.45;;;3.20;99.90;;;;;;5103860;27;21059;-61
2022/01/30 05:24:34;;;;;;;6.78;1.77;;;3.20;99.90;;;;;;5084584;28;20952;-58
2022/01/30 05:27:15;;;;;;;6.75;1.55;;;3.10;99.90;;;;;;5084399;27;20549;-59
2022/01/30 05:29:54;;;;;;;4.50;1.60;;;3.10;99.90;;;;;;5104193;27;20661;-60
2022/01/30 05:32:34;;;;;;;4.15;1.60;;;3.10;99.90;;;;;;5146381;27;21063;-60
2022/01/30 05:35:15;;;;;;;2.90;1.70;;;3.00;99.90;;;;;;5084783;28;20589;-59
2022/01/30 05:37:56;;;;;;;5.90;1.73;;;3.00;99.90;;;;;;5149858;27;20544;-61
2022/01/30 05:40:37;;;;;;;7.15;2.05;;;3.10;99.90;;;;;;5145916;27;20661;-59
2022/01/30 05:43:16;;;;;;;3.40;1.30;;;3.20;99.90;;;;;;5085100;28;20668;-59
2022/01/30 05:46:07;;;;;;;4.80;1.52;;;3.00;99.90;;;;;;5104996;27;20953;-59
2022/01/30 05:48:47;;;;;;;8.35;1.80;;;2.80;99.90;;;;;;5145988;27;20616;-60
2022/01/30 05:51:26;;;;;;;5.68;1.92;;;2.70;99.90;;;;;;5105135;27;20658;-59
2022/01/30 05:54:06;;;;;;;5.30;1.67;;;2.70;99.90;;;;;;5084824;28;20581;-58
2022/01/30 05:56:46;;;;;;;6.30;1.63;;;2.60;99.90;;;;;;5085261;28;20660;-58
2022/01/30 05:59:26;;;;;;;6.00;1.80;;;2.40;99.90;;;;;;5084979;28;20555;-60
2022/01/30 06:02:06;;;;;;;3.75;1.67;;;2.50;99.90;;;;;;5126283;27;20532;-59
2022/01/30 06:04:46;;;;;;;5.40;2.00;;;2.60;99.90;;;;;;5105674;27;20534;-60
2022/01/30 06:07:29;;;;;;;4.25;1.98;;;2.80;99.90;;;;;;5104586;27;21062;-59
2022/01/30 06:10:09;;;;;;;4.75;1.60;;;2.90;99.90;;;;;;5084938;27;20567;-61
2022/01/30 06:12:48;;;;;;;5.60;2.08;;;2.90;99.90;;;;;;5105829;27;21179;-61
2022/01/30 06:15:28;;;;;;;7.28;2.42;;;2.90;99.90;;;;;;5102803;27;20687;-60
2022/01/30 06:18:08;;;;;;;3.25;1.80;;;2.90;99.90;;;;;;5146049;27;20562;-59
2022/01/30 06:20:48;;;;;;;5.00;1.73;;;2.80;99.90;;;;;;5077254;27;20564;-60
2022/01/30 06:23:28;;;;;;;5.07;1.85;;;2.80;99.90;;;;;;5097960;27;20795;-60
2022/01/30 06:26:07;;;;;;;5.82;1.98;;;2.70;99.90;;;;;;5083593;28;21197;-59
2022/01/30 06:28:47;;;;;;;5.13;1.85;;;2.70;99.90;;;;;;5083697;28;20676;-59
2022/01/30 06:31:27;;;;;;;4.85;2.10;;;2.70;99.90;;;;;;5130913;27;20930;-59
2022/01/30 06:34:07;;;;;;;3.80;1.90;;;2.70;99.90;;;;;;5097664;27;20550;-60
2022/01/30 06:36:47;;;;;;;7.55;1.65;;;2.70;99.90;;;;;;5072039;28;21058;-59
2022/01/30 06:39:27;;;;;;;3.88;2.22;;;2.70;99.90;;;;;;5096915;27;21218;-59
2022/01/30 06:42:07;;;;;;;5.13;1.65;;;2.70;99.90;;;;;;5083627;28;20675;-61
2022/01/30 06:44:47;;;;;;;2.90;1.42;;;2.80;99.90;;;;;;5104684;27;20668;-59
2022/01/30 06:47:27;;;;;;;4.00;1.88;;;2.70;99.90;;;;;;5103099;27;20615;-60
2022/01/30 06:50:06;;;;;;;7.63;2.00;;;2.60;99.90;;;;;;5152413;27;20986;-60
2022/01/30 06:52:46;;;;;;;5.03;2.08;;;2.60;99.90;;;;;;5103579;27;20541;-59
2022/01/30 06:55:26;;;;;;;5.07;1.50;;;2.60;99.90;;;;;;5103693;27;20661;-59
2022/01/30 06:58:05;;;;;;;4.47;1.88;;;2.70;99.90;;;;;;5125218;27;20605;-59
2022/01/30 07:00:45;;;;;;;7.72;1.63;;;2.70;99.90;;;;;;5123348;27;20547;-61
2022/01/30 07:03:25;;;;;;;4.22;1.80;;;2.70;99.90;;;;;;5104301;27;20697;-59
2022/01/30 07:06:05;;;;;;;3.70;1.70;;;2.80;99.90;;;;;;5084598;27;20872;-60
2022/01/30 07:08:45;;;;;;;7.05;2.00;;;2.80;99.90;;;;;;5123206;27;20704;-59
2022/01/30 07:11:24;;;;;;;6.68;1.77;;;2.80;99.90;;;;;;5083755;27;20555;-60
2022/01/30 07:14:04;;;;;;;5.72;2.17;;;3.00;99.90;;;;;;5083882;28;20679;-59
2022/01/30 07:16:44;;;;;;;4.85;1.83;;;3.00;99.90;;;;;;5144794;27;21128;-60
2022/01/30 07:19:24;;;;;;;9.23;2.08;;;3.00;99.90;;;;;;5083200;28;21193;-60
2022/01/30 07:22:04;;;;;;;4.43;2.08;;;3.10;99.90;;;;;;5113896;27;21086;-60
2022/01/30 07:24:44;;;;;;;6.13;1.92;;;3.10;99.90;;;;;;5121400;27;20686;-59
2022/01/30 07:27:23;;;;;;;8.93;1.92;;;3.30;99.90;;;;;;5083275;28;20578;-59
2022/01/30 07:30:04;;;;;;;4.22;1.70;;;3.40;99.90;;;;;;5103726;27;20688;-59
2022/01/30 07:32:43;;;;;;;4.95;1.52;;;3.50;99.90;;;;;;5145760;27;21059;-59
2022/01/30 07:35:23;;;;;;;5.90;1.58;;;3.60;99.90;;;;;;5100135;27;20657;-59
2022/01/30 07:38:03;;;;;;;4.45;1.38;;;3.60;99.90;;;;;;5076373;27;20906;-59
2022/01/30 07:40:43;;;;;;;6.95;1.88;;;3.70;99.90;;;;;;5092038;27;20621;-58
2022/01/30 07:43:22;;;;;;;4.03;1.77;;;3.70;99.90;;;;;;5129857;27;20667;-60
2022/01/30 07:46:04;;;;;;;6.38;1.67;;;3.80;99.90;;;;;;5156413;27;20538;-60
2022/01/30 07:48:44;;;;;;;5.80;2.13;;;3.80;99.90;;;;;;5072055;28;20622;-59
2022/01/30 07:51:24;;;;;;;5.60;1.75;;;3.90;99.90;;;;;;5083524;27;20536;-58
2022/01/30 07:54:04;;;;;;;4.85;1.60;;;3.90;99.90;;;;;;5081925;28;21100;-58
2022/01/30 07:56:43;;;;;;;3.90;1.52;;;4.00;99.90;;;;;;5083774;27;20668;-58
2022/01/30 07:59:23;;;;;;;5.70;1.65;;;4.00;99.90;;;;;;5066836;28;20686;-60
2022/01/30 08:02:03;;;;;;;6.10;1.65;;;3.90;99.90;;;;;;5137886;27;20560;-59
2022/01/30 08:04:43;;;;;;;8.10;2.35;;;4.00;99.90;;;;;;5080257;28;20696;-58
2022/01/30 08:07:23;;;;;;;4.82;2.17;;;4.10;99.90;;;;;;5085750;27;21213;-58
2022/01/30 08:10:02;;;;;;;6.18;2.00;;;4.00;99.90;;;;;;5082167;27;21009;-59
2022/01/30 08:12:42;;;;;;;4.60;1.73;;;4.00;99.90;;;;;;5104343;27;20661;-59
2022/01/30 08:15:22;;;;;;;6.47;1.90;;;4.10;99.90;;;;;;5143710;27;20567;-59
2022/01/30 08:18:02;;;;;;;5.68;1.88;;;4.10;99.90;;;;;;5123869;27;20551;-60
2022/01/30 08:20:42;;;;;;;4.47;2.00;;;4.10;99.90;;;;;;5082902;27;20572;-59
2022/01/30 08:23:23;;;;;;;4.15;1.63;;;4.20;99.90;;;;;;5102794;27;20830;-59
2022/01/30 08:26:04;;;;;;;7.78;2.28;;;4.30;99.90;;;;;;5102805;27;20545;-59
2022/01/30 08:28:43;;;;;;;6.50;2.15;;;4.50;99.90;;;;;;5103461;27;20693;-59
2022/01/30 08:31:23;;;;;;;1.88;1.50;;;4.50;99.90;;;;;;5083397;27;20914;-59
2022/01/30 08:34:02;;;;;;;5.57;2.38;;;4.60;99.90;;;;;;5104050;27;20599;-58
2022/01/30 08:36:42;;;;;;;7.57;2.33;;;4.60;99.90;;;;;;5103692;27;20549;-59
2022/01/30 08:39:22;;;;;;;6.88;2.03;;;4.60;99.90;;;;;;5086669;27;20559;-59
2022/01/30 08:42:02;;;;;;;4.10;1.98;;;4.60;99.90;;;;;;5133574;27;20705;-59
2022/01/30 08:44:42;;;;;;;4.25;1.90;;;4.60;99.90;;;;;;5083289;28;20616;-58
2022/01/30 08:47:22;;;;;;;5.57;1.85;;;4.60;99.90;;;;;;5123983;27;20539;-58
2022/01/30 08:50:01;;;;;;;6.90;3.25;;;4.50;99.90;;;;;;5101639;27;20669;-58
2022/01/30 08:52:42;;;;;;;4.40;1.90;;;4.60;99.90;;;;;;5079345;28;20687;-58
2022/01/30 08:55:21;;;;;;;7.97;2.42;;;4.60;99.90;;;;;;5083076;28;20684;-59
2022/01/30 08:58:07;;;;;;;6.88;2.30;;;4.70;99.90;;;;;;5146696;27;21212;-59
2022/01/30 09:00:47;;;;;;;7.55;2.03;;;4.60;99.90;;;;;;5083009;28;20667;-58
2022/01/30 09:03:27;;;;;;;6.10;2.10;;;4.70;99.90;;;;;;5084341;27;20562;-61
2022/01/30 09:06:07;;;;;;;5.80;2.00;;;4.70;99.90;;;;;;5084307;27;20626;-59
2022/01/30 09:08:46;;;;;;;6.10;2.17;;;4.60;99.90;;;;;;5098445;27;20555;-58
2022/01/30 09:11:26;;;;;;;8.02;2.22;;;4.50;99.90;;;;;;5082424;27;20555;-59
2022/01/30 09:14:07;;;;;;;8.07;1.95;;;4.40;99.90;;;;;;5084252;28;20668;-58
2022/01/30 09:17:12;;;;;;;6.50;2.25;;;4.40;99.90;;;;;;5085023;27;20551;-60
2022/01/30 09:19:51;;;;;;;3.97;1.45;;;4.30;99.90;;;;;;5084190;27;20563;-63
2022/01/30 09:22:31;;;;;;;5.40;2.00;;;4.40;99.90;;;;;;5074122;28;20658;-61
2022/01/30 09:25:11;;;;;;;3.40;1.65;;;4.60;99.90;;;;;;5124119;27;20679;-58
2022/01/30 09:27:51;;;;;;;7.30;2.30;;;4.80;99.90;;;;;;5074654;28;21025;-58
2022/01/30 09:30:31;;;;;;;7.65;2.25;;;5.00;99.90;;;;;;5103605;27;20534;-58
2022/01/30 09:33:10;;;;;;;6.25;1.83;;;5.30;99.90;;;;;;5083907;28;20601;-58
2022/01/30 09:35:50;;;;;;;5.18;1.90;;;5.40;99.90;;;;;;5103409;27;20678;-59
2022/01/30 09:38:30;;;;;;;3.95;1.88;;;5.50;99.90;;;;;;5088057;27;20572;-59
2022/01/30 09:41:10;;;;;;;5.40;2.50;;;5.60;99.90;;;;;;5098893;27;20595;-59
2022/01/30 09:43:50;;;;;;;4.65;2.00;;;5.50;99.90;;;;;;5103832;27;20546;-59
2022/01/30 09:46:32;;;;;;;8.57;2.47;;;5.40;99.90;;;;;;5125574;27;20539;-58
2022/01/30 09:49:12;;;;;;;4.57;1.88;;;5.30;99.90;;;;;;5144068;27;21277;-58
2022/01/30 09:51:52;;;;;;;8.05;1.77;;;5.30;99.90;;;;;;5124760;27;20664;-59
2022/01/30 09:54:32;;;;;;;6.18;1.58;;;5.30;99.90;;;;;;5102828;27;20530;-58
2022/01/30 09:57:12;;;;;;;5.13;2.13;;;5.30;99.90;;;;;;5079757;27;20701;-58
2022/01/30 09:59:52;;;;;;;7.07;2.22;;;5.30;99.90;;;;;;5103582;27;20545;-60
2022/01/30 10:02:32;;;;;;;5.20;2.10;;;5.40;99.90;;;;;;5083171;28;20672;-58
2022/01/30 10:05:14;;;;;;;5.55;2.10;;;5.60;99.90;;;;;;5103999;27;20541;-58
2022/01/30 10:07:57;;;;;;;9.13;2.30;;;5.70;99.90;;;;;;5081882;28;20708;-59
2022/01/30 10:10:42;;;;;;;8.35;2.40;;;5.80;99.90;;;;;;5081765;28;20543;-58
2022/01/30 10:13:31;;;;;;;5.05;1.58;;;5.90;99.90;;;;;;5102388;27;20657;-59
2022/01/30 10:16:10;;;;;;;4.70;1.60;;;6.00;99.90;;;;;;5082333;28;20671;-60
2022/01/30 10:18:50;;;;;;;5.10;1.90;;;6.10;99.90;;;;;;5058945;28;21068;-58
2022/01/30 10:21:30;;;;;;;6.95;1.77;;;6.10;99.90;;;;;;5074896;27;20688;-58
2022/01/30 10:24:24;;;;;;;5.03;1.90;;;6.20;99.90;;;;;;5144260;27;20553;-60
2022/01/30 10:27:19;;;;;;;3.35;1.65;;;6.20;99.90;;;;;;5113055;27;20695;-60
2022/01/30 10:30:00;;;;;;;3.53;1.30;;;6.20;99.90;;;;;;5125293;27;20679;-59
2022/01/30 10:32:40;;;;;;;6.00;1.75;;;6.10;99.90;;;;;;5084960;27;20543;-58
2022/01/30 10:35:19;;;;;;;4.43;2.38;;;5.90;99.90;;;;;;5084333;27;21068;-58
2022/01/30 10:37:59;;;;;;;3.78;1.45;;;5.60;99.90;;;;;;5083695;28;20556;-58
2022/01/30 10:40:39;;;;;;;4.57;1.48;;;5.30;99.90;;;;;;5104230;27;20529;-58
2022/01/30 10:43:19;;;;;;;6.15;2.05;;;5.20;99.90;;;;;;5104937;27;20665;-59
2022/01/30 10:45:59;;;;;;;6.03;1.92;;;5.30;99.90;;;;;;5125979;27;20868;-58
2022/01/30 10:48:50;;;;;;;5.47;1.60;;;5.50;99.90;;;;;;5084164;27;20593;-58
2022/01/30 10:51:31;;;;;;;6.13;1.75;;;5.80;99.90;;;;;;5084268;28;21208;-58
2022/01/30 10:54:13;;;;;;;6.57;1.40;;;6.10;99.90;;;;;;5084403;28;20675;-58
2022/01/30 10:57:02;;;;;;;5.55;1.67;;;5.90;99.90;;;;;;5104916;27;20657;-57
2022/01/30 10:59:45;;;;;;;2.65;1.60;;;5.80;99.90;;;;;;5084208;27;20555;-60
2022/01/30 11:02:26;;;;;;;4.15;1.48;;;5.70;99.90;;;;;;5105400;27;20665;-58
2022/01/30 11:05:12;;;;;;;3.92;1.55;;;5.60;99.90;;;;;;5104761;27;20611;-60
2022/01/30 11:07:52;;;;;;;4.70;1.33;;;5.40;99.90;;;;;;5104577;27;20669;-60
2022/01/30 11:10:32;;;;;;;3.15;1.50;;;5.40;99.90;;;;;;5084217;27;20569;-59
2022/01/30 11:13:21;;;;;;;5.80;2.05;;;5.40;99.90;;;;;;5084545;28;20699;-58
2022/01/30 11:19:02;;;;;;;4.35;1.58;;;5.70;99.90;;;;;;5145501;27;20681;-59
2022/01/30 11:21:43;;;;;;;4.45;1.60;;;5.80;99.90;;;;;;5104156;27;20689;-57
2022/01/30 11:24:25;;;;;;;2.88;1.33;;;6.00;99.90;;;;;;5084638;27;20532;-60
2022/01/30 11:27:06;;;;;;;4.10;1.60;;;6.20;99.90;;;;;;5145684;27;21193;-58
2022/01/30 11:29:47;;;;;;;4.50;1.17;;;6.40;99.90;;;;;;5084485;28;20547;-58
2022/01/30 11:32:27;;;;;;;6.95;2.17;;;6.60;99.90;;;;;;5084381;28;20684;-58
2022/01/30 11:35:07;;;;;;;4.88;1.33;;;6.70;99.90;;;;;;5125285;27;20598;-58
2022/01/30 11:37:49;;;;;;;7.60;1.77;;;6.70;99.90;;;;;;5104426;27;20546;-58
2022/01/30 11:40:29;;;;;;;6.68;1.73;;;6.70;99.90;;;;;;5083929;28;20743;-60
2022/01/30 11:43:10;;;;;;;7.50;1.88;;;6.60;99.90;;;;;;5084918;28;20536;-60
2022/01/30 11:46:15;;;;;;;3.20;1.63;;;6.60;99.90;;;;;;5104921;27;20530;-58
2022/01/30 11:49:12;;;;;;;4.47;1.83;;;6.80;99.90;;;;;;5084091;28;20562;-57
2022/01/30 11:51:53;;;;;;;5.43;1.80;;;7.10;99.90;;;;;;5104943;27;20537;-58
2022/01/30 11:54:37;;;;;;;4.72;2.03;;;7.10;99.90;;;;;;5084746;27;20565;-58
2022/01/30 11:57:47;;;;;;;3.42;1.45;;;7.00;99.90;;;;;;5084307;28;21033;-58
2022/01/30 12:00:41;;;;;;;2.88;1.50;;;6.80;99.90;;;;;;5104574;27;21054;-58
2022/01/30 12:03:30;;;;;;;3.55;1.65;;;6.60;99.90;;;;;;5085263;27;20569;-61
2022/01/30 12:06:35;;;;;;;5.22;1.63;;;6.50;99.90;;;;;;5085092;27;20717;-58
2022/01/30 12:09:30;;;;;;;5.47;1.80;;;6.30;99.90;;;;;;5084391;27;20700;-58
2022/01/30 12:12:09;;;;;;;3.40;1.40;;;6.10;99.90;;;;;;5104685;27;20541;-57
2022/01/30 12:14:50;;;;;;;5.95;1.77;;;6.00;99.90;;;;;;5104995;27;20670;-59
2022/01/30 12:17:50;;;;;;;4.45;1.63;;;5.70;99.90;;;;;;5081501;27;21132;-59
2022/01/30 12:20:32;;;;;;;6.40;1.92;;;5.70;99.90;;;;;;5071304;28;20719;-58
2022/01/30 12:23:25;;;;;;;3.42;1.75;;;5.90;99.90;;;;;;5144807;27;21126;-58
2022/01/30 12:26:07;;;;;;;4.85;1.73;;;5.70;99.90;;;;;;5122523;27;20532;-60
2022/01/30 12:28:49;;;;;;;2.67;1.50;;;5.70;99.90;;;;;;5083583;27;20551;-58
2022/01/30 12:31:32;;;;;;;6.05;1.83;;;6.10;99.90;;;;;;5084259;27;20547;-57
2022/01/30 12:34:12;;;;;;;8.10;1.70;;;6.50;99.90;;;;;;5084470;27;20560;-59
2022/01/30 12:36:55;;;;;;;3.20;1.45;;;6.70;99.90;;;;;;5104887;27;20665;-59
2022/01/30 12:39:34;;;;;;;6.50;1.83;;;6.40;99.90;;;;;;5104839;27;20574;-58
2022/01/30 12:42:17;;;;;;;6.82;1.95;;;5.90;99.90;;;;;;5104959;27;20542;-59
2022/01/30 12:45:01;;;;;;;4.47;1.48;;;5.60;99.90;;;;;;5104535;27;20674;-58
2022/01/30 12:47:48;;;;;;;2.78;1.30;;;5.50;99.90;;;;;;5083446;27;20728;-58
2022/01/30 12:50:32;;;;;;;3.45;1.50;;;5.50;99.90;;;;;;5104846;27;20661;-58
2022/01/30 12:53:11;;;;;;;2.90;1.58;;;5.50;99.90;;;;;;5084398;27;20548;-58
2022/01/30 12:55:51;;;;;;;5.65;1.55;;;5.40;99.90;;;;;;5125873;27;20564;-59
2022/01/30 12:58:34;;;;;;;6.22;1.95;;;5.40;99.90;;;;;;5104540;27;21043;-59
2022/01/30 13:01:15;;;;;;;3.65;2.00;;;5.70;99.90;;;;;;5104772;27;21122;-57
2022/01/30 13:04:04;;;;;;;2.65;1.48;;;5.90;99.90;;;;;;5084677;28;20608;-59
2022/01/30 13:06:46;;;;;;;5.85;1.75;;;5.70;99.90;;;;;;5125497;27;20878;-59
2022/01/30 13:09:27;;;;;;;5.75;1.83;;;5.70;99.90;;;;;;5125197;27;20536;-59
2022/01/30 13:12:15;;;;;;;5.03;1.52;;;5.60;99.90;;;;;;5104414;27;20658;-59
2022/01/30 13:14:55;;;;;;;5.20;1.30;;;5.50;99.90;;;;;;5084597;27;21083;-59
2022/01/30 13:17:35;;;;;;;3.47;1.63;;;5.50;99.90;;;;;;5117176;27;20696;-61
2022/01/30 13:20:15;;;;;;;4.70;2.35;;;5.70;99.90;;;;;;5131451;27;20810;-61
2022/01/30 13:22:56;;;;;;;3.33;1.33;;;6.00;99.90;;;;;;5084450;27;20543;-58
2022/01/30 13:25:36;;;;;;;6.00;1.85;;;6.20;99.90;;;;;;5146352;27;20543;-58
2022/01/30 13:28:22;;;;;;;4.60;1.70;;;6.30;99.90;;;;;;5104897;27;20682;-58
2022/01/30 13:31:14;;;;;;;5.45;1.70;;;6.30;99.90;;;;;;5084845;28;20597;-57
2022/01/30 13:36:53;;;;;;;3.75;1.48;;;6.30;99.90;;;;;;5099503;27;21030;-57
2022/01/30 13:39:42;;;;;;;6.10;1.88;;;6.30;99.90;;;;;;5105172;27;20969;-58
2022/01/30 13:42:40;;;;;;;5.25;2.17;;;6.10;99.90;;;;;;5142417;27;20566;-58
2022/01/30 13:48:24;;;;;;;3.83;1.52;;;6.00;99.90;;;;;;5089952;27;20561;-57
2022/01/30 13:51:05;;;;;;;4.75;2.00;;;6.00;99.90;;;;;;5097659;27;21078;-57
2022/01/30 13:53:45;;;;;;;4.43;1.67;;;6.00;99.90;;;;;;5082521;27;20565;-60
2022/01/30 13:56:25;;;;;;;4.50;2.13;;;6.00;99.90;;;;;;5090621;27;20695;-57
2022/01/30 13:59:05;;;;;;;5.72;2.15;;;6.00;99.90;;;;;;5083055;28;20692;-57
2022/01/30 14:01:57;;;;;;;4.72;1.77;;;6.00;99.90;;;;;;5103973;27;20901;-59
2022/01/30 14:04:37;;;;;;;6.57;2.60;;;6.00;99.90;;;;;;5083365;27;21121;-59
2022/01/30 14:07:25;;;;;;;5.43;1.75;;;6.00;99.90;;;;;;5074487;28;20707;-61
2022/01/30 14:10:09;;;;;;;7.43;2.70;;;6.00;99.90;;;;;;5133891;27;20639;-58
2022/01/30 14:12:51;;;;;;;8.48;2.08;;;6.00;99.90;;;;;;5079973;27;20577;-58
2022/01/30 14:15:34;;;;;;;5.57;2.15;;;5.90;99.90;;;;;;5074097;27;21172;-58
2022/01/30 14:18:19;;;;;;;7.80;1.75;;;5.80;99.90;;;;;;5138953;27;20603;-61
2022/01/30 14:20:59;;;;;;;7.82;2.85;;;5.70;99.90;;;;;;5079813;28;20679;-58
2022/01/30 14:23:38;;;;;;;4.30;2.13;;;5.60;99.90;;;;;;5080913;28;21023;-59
2022/01/30 14:26:23;;;;;;;4.85;1.90;;;5.50;99.90;;;;;;5077348;27;21046;-60
2022/01/30 14:29:12;;;;;;;5.28;1.95;;;5.50;99.90;;;;;;5077485;27;20571;-58
2022/01/30 14:31:55;;;;;;;5.97;1.83;;;5.40;99.90;;;;;;5083892;27;20535;-59
2022/01/30 14:34:33;;;;;;;9.10;2.33;;;5.30;99.90;;;;;;5101366;27;20557;-59
2022/01/30 14:37:14;;;;;;;3.97;1.90;;;5.30;99.90;;;;;;5137085;27;20701;-59
2022/01/30 14:39:56;;;;;;;7.28;2.70;;;5.20;99.90;;;;;;5077459;27;20591;-58
2022/01/30 14:42:36;;;;;;;7.00;2.40;;;5.10;99.90;;;;;;5058524;27;20718;-59
2022/01/30 14:45:16;;;;;;;7.82;2.15;;;5.00;99.90;;;;;;5076505;27;20543;-59
2022/01/30 14:47:56;;;;;;;6.72;2.30;;;4.90;99.90;;;;;;5096506;27;20916;-59
2022/01/30 14:50:36;;;;;;;9.52;2.60;;;4.80;99.90;;;;;;5100904;27;20665;-60
2022/01/30 14:53:16;;;;;;;12.75;2.85;;;4.70;99.90;;;;;;5099042;27;20677;-59
2022/01/30 14:55:55;;;;;;;11.07;2.20;;;4.70;99.90;;;;;;5122476;27;20562;-58